GIA009 WIII-WIPP
Flight info
| Callsign | GIA009 |
|---|---|
| Flight time | N/A |
| Altitude | 30000 |
| Route | DOLTA2A/07L DOLTA W12 GUSKO |
| Aircraft | B738/M-SDE2E3FGHIRWXY/LB1 |
Departure
| Time | 2026-05-07 11:44 |
|---|---|
| Airport | Soekarno-Hatta International Airport (WIII) |
Arrival
| Time | N/A |
|---|---|
| Airport | Sultan Mahmud Badaruddin II Airport (WIPP) |
| Time | Latitude | Longitude | Altitude | Speed | Heading |
|---|---|---|---|---|---|
| 2026-05-07 11:04 | -6.11622 | 106.66821 | 37 ft | 0 kts | 134° |
| 2026-05-07 11:28 | -6.11613 | 106.66812 | 37 ft | 4 kts | 141° |
| 2026-05-07 11:29 | -6.11590 | 106.66797 | 35 ft | 4 kts | 157° |
| 2026-05-07 11:29 | -6.11565 | 106.66789 | 35 ft | 4 kts | 172° |
| 2026-05-07 11:29 | -6.11538 | 106.66788 | 37 ft | 4 kts | 190° |
| 2026-05-07 11:29 | -6.11514 | 106.66797 | 32 ft | 4 kts | 228° |
| 2026-05-07 11:30 | -6.11507 | 106.66807 | 37 ft | 1 kts | 248° |
| 2026-05-07 11:30 | -6.11507 | 106.66808 | 37 ft | 0 kts | 248° |
| 2026-05-07 11:34 | -6.11523 | 106.66768 | 35 ft | 13 kts | 248° |
| 2026-05-07 11:34 | -6.11565 | 106.66664 | 37 ft | 19 kts | 248° |
| 2026-05-07 11:34 | -6.11620 | 106.66524 | 37 ft | 18 kts | 248° |
| 2026-05-07 11:34 | -6.11621 | 106.66408 | 37 ft | 18 kts | 321° |
| 2026-05-07 11:35 | -6.11510 | 106.66358 | 34 ft | 17 kts | 338° |
| 2026-05-07 11:35 | -6.11400 | 106.66315 | 37 ft | 17 kts | 339° |
| 2026-05-07 11:35 | -6.11353 | 106.66261 | 38 ft | 7 kts | 269° |
| 2026-05-07 11:35 | -6.11376 | 106.66190 | 38 ft | 18 kts | 248° |
| 2026-05-07 11:36 | -6.11433 | 106.66045 | 37 ft | 27 kts | 247° |
| 2026-05-07 11:36 | -6.11510 | 106.65852 | 37 ft | 32 kts | 248° |
| 2026-05-07 11:36 | -6.11591 | 106.65648 | 37 ft | 28 kts | 249° |
| 2026-05-07 11:36 | -6.11662 | 106.65471 | 36 ft | 26 kts | 249° |
| 2026-05-07 11:37 | -6.11728 | 106.65305 | 37 ft | 25 kts | 249° |
| 2026-05-07 11:37 | -6.11790 | 106.65151 | 38 ft | 23 kts | 248° |
| 2026-05-07 11:37 | -6.11849 | 106.65004 | 37 ft | 22 kts | 248° |
| 2026-05-07 11:37 | -6.11906 | 106.64861 | 38 ft | 22 kts | 247° |
| 2026-05-07 11:38 | -6.11961 | 106.64722 | 38 ft | 21 kts | 248° |
| 2026-05-07 11:38 | -6.12015 | 106.64587 | 38 ft | 20 kts | 249° |
| 2026-05-07 11:38 | -6.12067 | 106.64456 | 38 ft | 20 kts | 248° |
| 2026-05-07 11:38 | -6.12117 | 106.64331 | 36 ft | 19 kts | 248° |
| 2026-05-07 11:39 | -6.12162 | 106.64219 | 37 ft | 16 kts | 248° |
| 2026-05-07 11:39 | -6.12204 | 106.64115 | 37 ft | 16 kts | 249° |
| 2026-05-07 11:39 | -6.12244 | 106.64014 | 38 ft | 15 kts | 248° |
| 2026-05-07 11:39 | -6.12252 | 106.63934 | 39 ft | 11 kts | 290° |
| 2026-05-07 11:40 | -6.12227 | 106.63903 | 39 ft | 0 kts | 321° |
| 2026-05-07 11:40 | -6.12226 | 106.63902 | 39 ft | 3 kts | 321° |
| 2026-05-07 11:41 | -6.12144 | 106.63904 | 39 ft | 13 kts | 29° |
| 2026-05-07 11:41 | -6.12110 | 106.63905 | 40 ft | 2 kts | 350° |
| 2026-05-07 11:41 | -6.12089 | 106.63917 | 39 ft | 4 kts | 56° |
| 2026-05-07 11:41 | -6.12085 | 106.63924 | 40 ft | 0 kts | 61° |
| 2026-05-07 11:42 | -6.12082 | 106.63931 | 40 ft | 1 kts | 65° |
| 2026-05-07 11:42 | -6.12081 | 106.63932 | 40 ft | 0 kts | 66° |
| 2026-05-07 11:43 | -6.12056 | 106.63995 | 38 ft | 42 kts | 68° |
| 2026-05-07 11:43 | -6.11832 | 106.64558 | 40 ft | 129 kts | 68° |
| 2026-05-07 11:44 | -6.11417 | 106.65602 | 241 ft | 184 kts | 69° |
| 2026-05-07 11:44 | -6.10929 | 106.66879 | 924 ft | 210 kts | 69° |
| 2026-05-07 11:44 | -6.10012 | 106.68141 | 1252 ft | 245 kts | 37° |
| 2026-05-07 11:44 | -6.08486 | 106.69035 | 1872 ft | 265 kts | 32° |
| 2026-05-07 11:45 | -6.06822 | 106.69951 | 2449 ft | 279 kts | 23° |
| 2026-05-07 11:45 | -6.04887 | 106.70096 | 3386 ft | 287 kts | 351° |
| 2026-05-07 11:45 | -6.02998 | 106.69300 | 3989 ft | 307 kts | 327° |
| 2026-05-07 11:45 | -6.01287 | 106.67947 | 4720 ft | 317 kts | 321° |
| 2026-05-07 11:46 | -5.99595 | 106.66499 | 5605 ft | 320 kts | 320° |
| 2026-05-07 11:46 | -5.97925 | 106.65044 | 6472 ft | 324 kts | 320° |
| 2026-05-07 11:46 | -5.96209 | 106.63551 | 7275 ft | 328 kts | 320° |
| 2026-05-07 11:46 | -5.94472 | 106.62048 | 8097 ft | 331 kts | 320° |
| 2026-05-07 11:47 | -5.92711 | 106.60531 | 8914 ft | 335 kts | 320° |
| 2026-05-07 11:47 | -5.90924 | 106.59000 | 9729 ft | 339 kts | 321° |
| 2026-05-07 11:47 | -5.89118 | 106.57457 | 10451 ft | 342 kts | 321° |
| 2026-05-07 11:47 | -5.87291 | 106.55900 | 11163 ft | 346 kts | 321° |
| 2026-05-07 11:48 | -5.85446 | 106.54328 | 11866 ft | 350 kts | 321° |
| 2026-05-07 11:48 | -5.83577 | 106.52738 | 12575 ft | 354 kts | 321° |
| 2026-05-07 11:48 | -5.81686 | 106.51130 | 13258 ft | 358 kts | 321° |
| 2026-05-07 11:48 | -5.79774 | 106.49504 | 13913 ft | 362 kts | 321° |
| 2026-05-07 11:49 | -5.77847 | 106.47861 | 14540 ft | 364 kts | 321° |
| 2026-05-07 11:49 | -5.75911 | 106.46210 | 15165 ft | 367 kts | 321° |
| 2026-05-07 11:49 | -5.73946 | 106.44538 | 15727 ft | 372 kts | 321° |
| 2026-05-07 11:49 | -5.71958 | 106.42846 | 16328 ft | 376 kts | 321° |
| 2026-05-07 11:50 | -5.69955 | 106.41144 | 16947 ft | 379 kts | 321° |
| 2026-05-07 11:50 | -5.67934 | 106.39427 | 17526 ft | 382 kts | 321° |
| 2026-05-07 11:50 | -5.65929 | 106.37724 | 18098 ft | 384 kts | 321° |
| 2026-05-07 11:50 | -5.63882 | 106.35986 | 18608 ft | 386 kts | 321° |
| 2026-05-07 11:51 | -5.61802 | 106.34220 | 19129 ft | 387 kts | 321° |
| 2026-05-07 11:51 | -5.59769 | 106.32494 | 19644 ft | 389 kts | 321° |
| 2026-05-07 11:51 | -5.57700 | 106.30739 | 20174 ft | 390 kts | 321° |
| 2026-05-07 11:51 | -5.55628 | 106.28980 | 20717 ft | 391 kts | 321° |
| 2026-05-07 11:52 | -5.53542 | 106.27211 | 21273 ft | 391 kts | 321° |
| 2026-05-07 11:52 | -5.51463 | 106.25447 | 21823 ft | 392 kts | 321° |
| 2026-05-07 11:52 | -5.49380 | 106.23680 | 22395 ft | 392 kts | 321° |
| 2026-05-07 11:52 | -5.47301 | 106.21915 | 22977 ft | 392 kts | 321° |
| 2026-05-07 11:53 | -5.45219 | 106.20149 | 23536 ft | 391 kts | 321° |
| 2026-05-07 11:53 | -5.43131 | 106.18379 | 23795 ft | 399 kts | 321° |
| 2026-05-07 11:53 | -5.40972 | 106.16550 | 23826 ft | 412 kts | 321° |
| 2026-05-07 11:53 | -5.38754 | 106.14671 | 23830 ft | 421 kts | 321° |
| 2026-05-07 11:54 | -5.38650 | 106.14582 | 23834 ft | 421 kts | 321° |
| 2026-05-07 11:54 | -5.36683 | 106.12915 | 23835 ft | 425 kts | 321° |
| 2026-05-07 11:54 | -5.34439 | 106.11011 | 23822 ft | 420 kts | 321° |
| 2026-05-07 11:54 | -5.32221 | 106.09128 | 23813 ft | 415 kts | 321° |
| 2026-05-07 11:55 | -5.30017 | 106.07260 | 23828 ft | 416 kts | 321° |